sensor_id;sensor_type;location;lat;lon;timestamp;pressure;altitude;pressure_sealevel;temperature;humidity
2036;BME280;23642;42.658;23.350;2022-08-25T00:01:35;52289.03;;;-146.31;93.82
2036;BME280;23642;42.658;23.350;2022-08-25T00:04:05;52270.44;;;-146.31;94.42
2036;BME280;23642;42.658;23.350;2022-08-25T00:06:35;52253.94;;;-146.31;93.94
2036;BME280;23642;42.658;23.350;2022-08-25T00:09:03;52247.75;;;-146.31;93.48
2036;BME280;23642;42.658;23.350;2022-08-25T00:11:33;52192.03;;;-146.31;93.22
2036;BME280;23642;42.658;23.350;2022-08-25T00:14:02;52204.41;;;-146.31;92.42
2036;BME280;23642;42.658;23.350;2022-08-25T00:16:30;52243.63;;;-146.31;92.86
2036;BME280;23642;42.658;23.350;2022-08-25T00:19:00;52214.75;;;-146.31;93.74
2036;BME280;23642;42.658;23.350;2022-08-25T00:21:27;52173.47;;;-146.31;93.61
2036;BME280;23642;42.658;23.350;2022-08-25T00:23:56;52165.22;;;-146.31;92.73
2036;BME280;23642;42.658;23.350;2022-08-25T00:26:24;52171.41;;;-146.31;93.54
2036;BME280;23642;42.658;23.350;2022-08-25T00:28:53;52177.59;;;-146.31;93.78
2036;BME280;23642;42.658;23.350;2022-08-25T00:31:21;52144.59;;;-146.31;93.97
2036;BME280;23642;42.658;23.350;2022-08-25T00:33:50;52152.84;;;-146.31;94.35
2036;BME280;23642;42.658;23.350;2022-08-25T00:36:18;52113.63;;;-146.31;94.35
2036;BME280;23642;42.658;23.350;2022-08-25T00:38:46;52076.50;;;-146.31;94.26
2036;BME280;23642;42.658;23.350;2022-08-25T00:41:17;52078.56;;;-146.31;94.55
2036;BME280;23642;42.658;23.350;2022-08-25T00:43:48;52070.31;;;-146.31;94.09
2036;BME280;23642;42.658;23.350;2022-08-25T00:46:19;52043.47;;;-146.31;94.04
2036;BME280;23642;42.658;23.350;2022-08-25T00:48:48;52045.53;;;-146.31;94.85
2036;BME280;23642;42.658;23.350;2022-08-25T00:51:29;52045.53;;;-146.31;95.34
2036;BME280;23642;42.658;23.350;2022-08-25T00:53:58;52006.34;;;-146.31;95.48
2036;BME280;23642;42.658;23.350;2022-08-25T00:56:27;51973.31;;;-146.31;95.50
2036;BME280;23642;42.658;23.350;2022-08-25T00:58:56;51913.47;;;-146.31;95.36
2036;BME280;23642;42.658;23.350;2022-08-25T01:01:25;51899.03;;;-146.31;95.42
2036;BME280;23642;42.658;23.350;2022-08-25T01:03:52;51861.91;;;-146.31;94.71
2036;BME280;23642;42.658;23.350;2022-08-25T01:06:20;51863.97;;;-146.31;94.78
2036;BME280;23642;42.658;23.350;2022-08-25T01:08:47;51855.72;;;-146.31;94.11
2036;BME280;23642;42.658;23.350;2022-08-25T01:11:14;51892.84;;;-146.31;92.92
2036;BME280;23642;42.658;23.350;2022-08-25T01:13:44;51888.72;;;-146.31;93.02
2036;BME280;23642;42.658;23.350;2022-08-25T01:16:14;51905.22;;;-146.31;92.94
2036;BME280;23642;42.658;23.350;2022-08-25T01:18:49;51901.09;;;-146.31;93.09
2036;BME280;23642;42.658;23.350;2022-08-25T01:21:20;51905.22;;;-146.31;92.81
2036;BME280;23642;42.658;23.350;2022-08-25T01:23:49;51919.69;;;-146.31;92.11
2036;BME280;23642;42.658;23.350;2022-08-25T01:26:20;51880.47;;;-146.31;91.41
2036;BME280;23642;42.658;23.350;2022-08-25T01:28:49;51963.00;;;-146.31;91.69
2036;BME280;23642;42.658;23.350;2022-08-25T01:31:35;51932.06;;;-146.31;92.27
2036;BME280;23642;42.658;23.350;2022-08-25T01:34:04;51905.22;;;-146.31;91.98
2036;BME280;23642;42.658;23.350;2022-08-25T01:36:34;51905.22;;;-146.31;91.64
2036;BME280;23642;42.658;23.350;2022-08-25T01:39:02;51911.41;;;-146.31;91.81
2036;BME280;23642;42.658;23.350;2022-08-25T01:41:35;51921.75;;;-146.31;92.11
2036;BME280;23642;42.658;23.350;2022-08-25T01:44:05;51901.09;;;-146.31;92.66
2036;BME280;23642;42.658;23.350;2022-08-25T01:46:33;51913.47;;;-146.31;93.13
2036;BME280;23642;42.658;23.350;2022-08-25T01:49:02;51847.47;;;-146.31;92.74
2036;BME280;23642;42.658;23.350;2022-08-25T01:51:34;51892.84;;;-146.31;91.39
2036;BME280;23642;42.658;23.350;2022-08-25T01:54:03;51880.47;;;-146.31;92.23
2036;BME280;23642;42.658;23.350;2022-08-25T01:56:30;51899.03;;;-146.31;92.79
2036;BME280;23642;42.658;23.350;2022-08-25T01:58:57;51899.03;;;-146.31;93.23
2036;BME280;23642;42.658;23.350;2022-08-25T02:01:25;51880.47;;;-146.31;93.40
2036;BME280;23642;42.658;23.350;2022-08-25T02:03:54;51847.47;;;-146.31;93.36
2036;BME280;23642;42.658;23.350;2022-08-25T02:06:23;51847.47;;;-146.31;93.00
2036;BME280;23642;42.658;23.350;2022-08-25T02:08:55;51882.53;;;-146.31;92.20
2036;BME280;23642;42.658;23.350;2022-08-25T02:11:23;51905.22;;;-146.31;92.50
2036;BME280;23642;42.658;23.350;2022-08-25T02:13:50;51890.78;;;-146.31;92.84
2036;BME280;23642;42.658;23.350;2022-08-25T02:16:20;51888.72;;;-146.31;93.11
2036;BME280;23642;42.658;23.350;2022-08-25T02:18:49;51880.47;;;-146.31;93.50
2036;BME280;23642;42.658;23.350;2022-08-25T02:21:16;51872.22;;;-146.31;93.67
2036;BME280;23642;42.658;23.350;2022-08-25T02:23:43;51894.91;;;-146.31;92.91
2036;BME280;23642;42.658;23.350;2022-08-25T02:26:12;51892.84;;;-146.31;92.76
2036;BME280;23642;42.658;23.350;2022-08-25T02:28:41;51888.72;;;-146.31;92.84
2036;BME280;23642;42.658;23.350;2022-08-25T02:31:09;51899.03;;;-146.31;92.99
2036;BME280;23642;42.658;23.350;2022-08-25T02:33:36;51917.63;;;-146.31;93.09
2036;BME280;23642;42.658;23.350;2022-08-25T02:36:05;51882.53;;;-146.31;92.69
2036;BME280;23642;42.658;23.350;2022-08-25T02:38:34;51950.63;;;-146.31;92.40
2036;BME280;23642;42.658;23.350;2022-08-25T02:41:07;51967.13;;;-146.31;92.04
2036;BME280;23642;42.658;23.350;2022-08-25T02:43:37;51946.50;;;-146.31;92.08
2036;BME280;23642;42.658;23.350;2022-08-25T02:46:05;51936.19;;;-146.31;92.18
2036;BME280;23642;42.658;23.350;2022-08-25T02:48:32;51952.69;;;-146.31;91.77
2036;BME280;23642;42.658;23.350;2022-08-25T02:51:01;51954.75;;;-146.31;91.92
2036;BME280;23642;42.658;23.350;2022-08-25T02:53:28;51954.75;;;-146.31;91.77
2036;BME280;23642;42.658;23.350;2022-08-25T02:55:55;51948.56;;;-146.31;91.90
2036;BME280;23642;42.658;23.350;2022-08-25T02:58:22;51950.63;;;-146.31;91.80
2036;BME280;23642;42.658;23.350;2022-08-25T03:00:52;51967.13;;;-146.31;91.51
2036;BME280;23642;42.658;23.350;2022-08-25T03:03:20;51963.00;;;-146.31;91.15
2036;BME280;23642;42.658;23.350;2022-08-25T03:05:47;51932.06;;;-146.31;90.65
2036;BME280;23642;42.658;23.350;2022-08-25T03:08:14;51954.75;;;-146.31;90.69
2036;BME280;23642;42.658;23.350;2022-08-25T03:10:44;51942.38;;;-146.31;90.99
2036;BME280;23642;42.658;23.350;2022-08-25T03:13:12;51956.81;;;-146.31;90.90
2036;BME280;23642;42.658;23.350;2022-08-25T03:15:39;51938.25;;;-146.31;90.58
2036;BME280;23642;42.658;23.350;2022-08-25T03:18:08;51983.63;;;-146.31;91.08
2036;BME280;23642;42.658;23.350;2022-08-25T03:20:37;51973.31;;;-146.31;91.24
2036;BME280;23642;42.658;23.350;2022-08-25T03:23:05;51956.81;;;-146.31;91.12
2036;BME280;23642;42.658;23.350;2022-08-25T03:25:32;51975.38;;;-146.31;90.54
2036;BME280;23642;42.658;23.350;2022-08-25T03:28:17;51963.00;;;-146.31;90.67
2036;BME280;23642;42.658;23.350;2022-08-25T03:30:44;51985.69;;;-146.31;90.46
2036;BME280;23642;42.658;23.350;2022-08-25T03:33:13;51954.75;;;-146.31;90.74
2036;BME280;23642;42.658;23.350;2022-08-25T03:35:40;51965.06;;;-146.31;90.94
2036;BME280;23642;42.658;23.350;2022-08-25T03:38:07;51946.50;;;-146.31;90.51
2036;BME280;23642;42.658;23.350;2022-08-25T03:40:34;51942.38;;;-146.31;90.36
2036;BME280;23642;42.658;23.350;2022-08-25T03:43:02;51934.13;;;-146.31;90.09
2036;BME280;23642;42.658;23.350;2022-08-25T03:45:29;51948.56;;;-146.31;89.93
2036;BME280;23642;42.658;23.350;2022-08-25T03:47:56;51932.06;;;-146.31;89.82
2036;BME280;23642;42.658;23.350;2022-08-25T03:50:25;51956.81;;;-146.31;89.89
2036;BME280;23642;42.658;23.350;2022-08-25T03:52:53;51954.75;;;-146.31;89.69
2036;BME280;23642;42.658;23.350;2022-08-25T03:55:24;51967.13;;;-146.31;89.87
2036;BME280;23642;42.658;23.350;2022-08-25T03:57:53;51969.19;;;-146.31;90.14
2036;BME280;23642;42.658;23.350;2022-08-25T04:00:21;51913.47;;;-146.31;89.82
2036;BME280;23642;42.658;23.350;2022-08-25T04:02:48;51915.53;;;-146.31;89.71
2036;BME280;23642;42.658;23.350;2022-08-25T04:05:15;51946.50;;;-146.31;89.70
2036;BME280;23642;42.658;23.350;2022-08-25T04:07:44;51952.69;;;-146.31;89.55
2036;BME280;23642;42.658;23.350;2022-08-25T04:10:11;51956.81;;;-146.31;89.63
2036;BME280;23642;42.658;23.350;2022-08-25T04:12:38;51958.88;;;-146.31;89.39
2036;BME280;23642;42.658;23.350;2022-08-25T04:15:07;51930.00;;;-146.31;89.71
2036;BME280;23642;42.658;23.350;2022-08-25T04:17:37;51907.28;;;-146.31;88.90
2036;BME280;23642;42.658;23.350;2022-08-25T04:20:08;51917.63;;;-146.31;88.42
2036;BME280;23642;42.658;23.350;2022-08-25T04:22:36;51944.44;;;-146.31;88.20
2036;BME280;23642;42.658;23.350;2022-08-25T04:25:06;51958.88;;;-146.31;88.34
2036;BME280;23642;42.658;23.350;2022-08-25T04:27:35;51952.69;;;-146.31;88.75
2036;BME280;23642;42.658;23.350;2022-08-25T04:30:03;51938.25;;;-146.31;88.71
2036;BME280;23642;42.658;23.350;2022-08-25T04:32:30;51954.75;;;-146.31;88.64
2036;BME280;23642;42.658;23.350;2022-08-25T04:34:57;51971.25;;;-146.31;88.35
2036;BME280;23642;42.658;23.350;2022-08-25T04:37:24;51967.13;;;-146.31;88.20
2036;BME280;23642;42.658;23.350;2022-08-25T04:39:51;51958.88;;;-146.31;88.12
2036;BME280;23642;42.658;23.350;2022-08-25T04:42:20;51965.06;;;-146.31;88.10
2036;BME280;23642;42.658;23.350;2022-08-25T04:44:47;51950.63;;;-146.31;87.95
2036;BME280;23642;42.658;23.350;2022-08-25T04:47:15;51940.31;;;-146.31;87.66
2036;BME280;23642;42.658;23.350;2022-08-25T04:49:42;51960.94;;;-146.31;87.77
2036;BME280;23642;42.658;23.350;2022-08-25T04:52:09;51991.88;;;-146.31;87.37
2036;BME280;23642;42.658;23.350;2022-08-25T04:54:36;51987.75;;;-146.31;86.34
2036;BME280;23642;42.658;23.350;2022-08-25T04:57:03;51983.63;;;-146.31;86.24
2036;BME280;23642;42.658;23.350;2022-08-25T04:59:32;51981.56;;;-146.31;85.82
2036;BME280;23642;42.658;23.350;2022-08-25T05:02:00;52004.28;;;-146.31;85.51
2036;BME280;23642;42.658;23.350;2022-08-25T05:04:30;51991.88;;;-146.31;85.47
2036;BME280;23642;42.658;23.350;2022-08-25T05:06:58;52012.53;;;-146.31;85.26
2036;BME280;23642;42.658;23.350;2022-08-25T05:09:25;51975.38;;;-146.31;84.92
2036;BME280;23642;42.658;23.350;2022-08-25T05:11:52;52000.16;;;-146.31;84.59
2036;BME280;23642;42.658;23.350;2022-08-25T05:14:20;52016.66;;;-146.31;84.55
2036;BME280;23642;42.658;23.350;2022-08-25T05:16:48;52018.72;;;-146.31;84.30
2036;BME280;23642;42.658;23.350;2022-08-25T05:19:16;52041.41;;;-146.31;84.29
2036;BME280;23642;42.658;23.350;2022-08-25T05:21:43;52031.09;;;-146.31;84.05
2036;BME280;23642;42.658;23.350;2022-08-25T05:24:10;52045.53;;;-146.31;83.47
2036;BME280;23642;42.658;23.350;2022-08-25T05:26:38;52014.59;;;-146.31;83.12
2036;BME280;23642;42.658;23.350;2022-08-25T05:29:05;52014.59;;;-146.31;82.65
2036;BME280;23642;42.658;23.350;2022-08-25T05:31:35;51996.03;;;-146.31;82.51
2036;BME280;23642;42.658;23.350;2022-08-25T05:34:06;51967.13;;;-146.31;81.07
2036;BME280;23642;42.658;23.350;2022-08-25T05:36:33;52024.91;;;-146.31;80.59
2036;BME280;23642;42.658;23.350;2022-08-25T05:39:03;52000.16;;;-146.31;80.70
2036;BME280;23642;42.658;23.350;2022-08-25T05:41:31;51930.00;;;-146.31;79.60
2036;BME280;23642;42.658;23.350;2022-08-25T05:43:58;51936.19;;;-146.31;78.77
2036;BME280;23642;42.658;23.350;2022-08-25T05:46:26;51894.91;;;-146.31;77.80
2036;BME280;23642;42.658;23.350;2022-08-25T05:48:55;51878.41;;;-146.31;77.03
2036;BME280;23642;42.658;23.350;2022-08-25T05:51:23;51950.63;;;-146.31;77.23
2036;BME280;23642;42.658;23.350;2022-08-25T05:53:51;51969.19;;;-146.31;77.02
2036;BME280;23642;42.658;23.350;2022-08-25T05:56:21;52055.84;;;-146.31;77.51
2036;BME280;23642;42.658;23.350;2022-08-25T05:58:48;52068.22;;;-146.31;78.45
2036;BME280;23642;42.658;23.350;2022-08-25T06:01:21;52055.84;;;-146.31;78.79
2036;BME280;23642;42.658;23.350;2022-08-25T06:04:06;52090.94;;;-146.31;78.97
2036;BME280;23642;42.658;23.350;2022-08-25T06:06:44;52062.03;;;-146.31;79.46
2036;BME280;23642;42.658;23.350;2022-08-25T06:09:18;52074.44;;;-146.31;78.18
2036;BME280;23642;42.658;23.350;2022-08-25T06:11:47;52090.94;;;-146.31;78.80
2036;BME280;23642;42.658;23.350;2022-08-25T06:14:17;52004.28;;;-146.31;77.45
2036;BME280;23642;42.658;23.350;2022-08-25T06:16:45;52113.63;;;-146.31;78.52
2036;BME280;23642;42.658;23.350;2022-08-25T06:19:16;52041.41;;;-146.31;77.97
2036;BME280;23642;42.658;23.350;2022-08-25T06:21:45;52039.34;;;-146.31;78.02
2036;BME280;23642;42.658;23.350;2022-08-25T06:24:12;52064.09;;;-146.31;77.64
2036;BME280;23642;42.658;23.350;2022-08-25T06:26:42;52004.28;;;-146.31;77.46
2036;BME280;23642;42.658;23.350;2022-08-25T06:29:09;51973.31;;;-146.31;77.61
2036;BME280;23642;42.658;23.350;2022-08-25T06:31:39;52045.53;;;-146.31;76.63
2036;BME280;23642;42.658;23.350;2022-08-25T06:34:06;51989.81;;;-146.31;76.65
2036;BME280;23642;42.658;23.350;2022-08-25T06:36:34;52053.78;;;-146.31;76.39
2036;BME280;23642;42.658;23.350;2022-08-25T06:39:04;52041.41;;;-146.31;76.17
2036;BME280;23642;42.658;23.350;2022-08-25T06:41:32;52026.97;;;-146.31;75.72
2036;BME280;23642;42.658;23.350;2022-08-25T06:43:59;51991.88;;;-146.31;74.82
2036;BME280;23642;42.658;23.350;2022-08-25T06:46:28;51979.50;;;-146.31;75.14
2036;BME280;23642;42.658;23.350;2022-08-25T06:48:56;51965.06;;;-146.31;74.30
2036;BME280;23642;42.658;23.350;2022-08-25T06:51:24;51853.66;;;-146.31;73.42
2036;BME280;23642;42.658;23.350;2022-08-25T06:53:52;51859.84;;;-146.31;71.94
2036;BME280;23642;42.658;23.350;2022-08-25T06:56:21;51853.66;;;-146.31;71.60
2036;BME280;23642;42.658;23.350;2022-08-25T06:58:48;51880.47;;;-146.31;70.28
2036;BME280;23642;42.658;23.350;2022-08-25T07:01:17;51932.06;;;-146.31;70.42
2036;BME280;23642;42.658;23.350;2022-08-25T07:03:48;51855.72;;;-146.31;69.38
2036;BME280;23642;42.658;23.350;2022-08-25T07:06:17;51973.31;;;-146.31;68.80
2036;BME280;23642;42.658;23.350;2022-08-25T07:08:44;51942.38;;;-146.31;66.88
2036;BME280;23642;42.658;23.350;2022-08-25T07:11:13;51958.88;;;-146.31;66.83
2036;BME280;23642;42.658;23.350;2022-08-25T07:13:43;51909.34;;;-146.31;67.12
2036;BME280;23642;42.658;23.350;2022-08-25T07:16:11;52016.66;;;-146.31;67.46
2036;BME280;23642;42.658;23.350;2022-08-25T07:18:40;52064.09;;;-146.31;69.22
2036;BME280;23642;42.658;23.350;2022-08-25T07:21:07;51954.75;;;-146.31;68.03
2036;BME280;23642;42.658;23.350;2022-08-25T07:23:35;51975.38;;;-146.31;67.48
2036;BME280;23642;42.658;23.350;2022-08-25T07:26:07;52035.22;;;-146.31;67.87
2036;BME280;23642;42.658;23.350;2022-08-25T07:28:35;52035.22;;;-146.31;67.34
2036;BME280;23642;42.658;23.350;2022-08-25T07:31:04;51954.75;;;-146.31;66.20
2036;BME280;23642;42.658;23.350;2022-08-25T07:33:31;51907.28;;;-146.31;66.42
2036;BME280;23642;42.658;23.350;2022-08-25T07:35:58;52111.56;;;-146.31;64.20
2036;BME280;23642;42.658;23.350;2022-08-25T07:38:24;51954.75;;;-146.31;62.73
2036;BME280;23642;42.658;23.350;2022-08-25T07:40:51;51952.69;;;-146.31;62.40
2036;BME280;23642;42.658;23.350;2022-08-25T07:43:21;52022.84;;;-146.31;62.18
2036;BME280;23642;42.658;23.350;2022-08-25T07:45:48;52041.41;;;-146.31;61.85
2036;BME280;23642;42.658;23.350;2022-08-25T07:48:17;52078.56;;;-146.31;61.46
2036;BME280;23642;42.658;23.350;2022-08-25T07:50:46;52039.34;;;-146.31;62.46
2036;BME280;23642;42.658;23.350;2022-08-25T07:53:15;52214.75;;;-146.31;63.57
2036;BME280;23642;42.658;23.350;2022-08-25T07:55:42;52138.38;;;-146.31;63.33
2036;BME280;23642;42.658;23.350;2022-08-25T07:58:11;52066.16;;;-146.31;63.05
2036;BME280;23642;42.658;23.350;2022-08-25T08:00:38;52037.28;;;-146.31;62.66
2036;BME280;23642;42.658;23.350;2022-08-25T08:03:07;52202.34;;;-146.31;63.48
2036;BME280;23642;42.658;23.350;2022-08-25T08:05:41;52029.03;;;-146.31;61.64
2036;BME280;23642;42.658;23.350;2022-08-25T08:08:08;52020.78;;;-146.31;61.28
2036;BME280;23642;42.658;23.350;2022-08-25T08:10:37;51919.69;;;-146.31;60.01
2036;BME280;23642;42.658;23.350;2022-08-25T08:13:05;51839.22;;;-146.31;60.96
2036;BME280;23642;42.658;23.350;2022-08-25T08:15:32;51828.88;;;-146.31;59.67
2036;BME280;23642;42.658;23.350;2022-08-25T08:17:59;51942.38;;;-146.31;59.44
2036;BME280;23642;42.658;23.350;2022-08-25T08:20:27;51958.88;;;-146.31;59.35
2036;BME280;23642;42.658;23.350;2022-08-25T08:22:57;51954.75;;;-146.31;59.91
2036;BME280;23642;42.658;23.350;2022-08-25T08:25:24;52012.53;;;-146.31;59.28
2036;BME280;23642;42.658;23.350;2022-08-25T08:28:22;52198.22;;;-146.31;59.50
2036;BME280;23642;42.658;23.350;2022-08-25T08:30:52;52064.09;;;-146.31;59.73
2036;BME280;23642;42.658;23.350;2022-08-25T08:33:22;52041.41;;;-146.31;58.58
2036;BME280;23642;42.658;23.350;2022-08-25T08:35:55;52243.63;;;-146.31;57.32
2036;BME280;23642;42.658;23.350;2022-08-25T08:38:23;52251.88;;;-146.31;57.18
2036;BME280;23642;42.658;23.350;2022-08-25T08:40:59;52328.22;;;-146.31;57.20
2036;BME280;23642;42.658;23.350;2022-08-25T08:43:47;52324.09;;;-146.31;56.16
2036;BME280;23642;42.658;23.350;2022-08-25T08:46:17;52454.09;;;-146.31;58.78
2036;BME280;23642;42.658;23.350;2022-08-25T08:48:53;52338.56;;;-146.31;58.53
2036;BME280;23642;42.658;23.350;2022-08-25T08:51:27;52297.28;;;-146.31;58.23
2036;BME280;23642;42.658;23.350;2022-08-25T08:54:05;52223.00;;;-146.31;56.27
2036;BME280;23642;42.658;23.350;2022-08-25T08:56:37;52264.25;;;-146.31;56.89
2036;BME280;23642;42.658;23.350;2022-08-25T08:59:09;52223.00;;;-146.31;56.42
2036;BME280;23642;42.658;23.350;2022-08-25T09:01:42;52643.97;;;-146.31;51.56
2036;BME280;23642;42.658;23.350;2022-08-25T09:04:16;52879.25;;;-146.31;50.88
2036;BME280;23642;42.658;23.350;2022-08-25T09:06:46;52990.69;;;-146.31;52.19
2036;BME280;23642;42.658;23.350;2022-08-25T09:09:19;52965.94;;;-146.31;50.31
2036;BME280;23642;42.658;23.350;2022-08-25T09:11:59;53112.47;;;-146.31;51.17
2036;BME280;23642;42.658;23.350;2022-08-25T09:14:40;53015.47;;;-146.31;49.83
2036;BME280;23642;42.658;23.350;2022-08-25T09:17:14;52953.53;;;-146.31;49.99
2036;BME280;23642;42.658;23.350;2022-08-25T09:20:00;53209.47;;;-146.31;49.47
2036;BME280;23642;42.658;23.350;2022-08-25T09:22:42;53420.03;;;-146.31;51.16
2036;BME280;23642;42.658;23.350;2022-08-25T09:25:49;53356.03;;;-146.31;49.81
2036;BME280;23642;42.658;23.350;2022-08-25T09:28:24;53325.06;;;-146.31;49.27
2036;BME280;23642;42.658;23.350;2022-08-25T09:31:10;53370.47;;;-146.31;49.39
2036;BME280;23642;42.658;23.350;2022-08-25T09:33:54;53312.69;;;-146.31;48.38
2036;BME280;23642;42.658;23.350;2022-08-25T09:36:28;53372.53;;;-146.31;49.07
2036;BME280;23642;42.658;23.350;2022-08-25T09:38:58;53473.69;;;-146.31;50.17
2036;BME280;23642;42.658;23.350;2022-08-25T09:41:41;53451.00;;;-146.31;50.21
2036;BME280;23642;42.658;23.350;2022-08-25T09:44:17;53494.34;;;-146.31;49.42
2036;BME280;23642;42.658;23.350;2022-08-25T09:46:54;53477.81;;;-146.31;49.99
2036;BME280;23642;42.658;23.350;2022-08-25T09:49:34;53399.38;;;-146.31;49.41
2036;BME280;23642;42.658;23.350;2022-08-25T09:52:25;53500.53;;;-146.31;47.23
2036;BME280;23642;42.658;23.350;2022-08-25T09:54:59;53535.63;;;-146.31;46.46
2036;BME280;23642;42.658;23.350;2022-08-25T09:57:31;53659.47;;;-146.31;46.04
2036;BME280;23642;42.658;23.350;2022-08-25T10:00:14;53717.28;;;-146.31;46.05
2036;BME280;23642;42.658;23.350;2022-08-25T10:02:42;53715.22;;;-146.31;46.40
2036;BME280;23642;42.658;23.350;2022-08-25T10:05:19;53766.81;;;-146.31;47.28
2036;BME280;23642;42.658;23.350;2022-08-25T10:07:52;53777.16;;;-146.31;47.75
2036;BME280;23642;42.658;23.350;2022-08-25T10:10:28;53770.97;;;-146.31;48.58
2036;BME280;23642;42.658;23.350;2022-08-25T10:12:58;53882.44;;;-146.31;49.89
2036;BME280;23642;42.658;23.350;2022-08-25T10:15:30;53946.44;;;-146.31;50.74
2036;BME280;23642;42.658;23.350;2022-08-25T10:18:19;53898.94;;;-146.31;50.66
2036;BME280;23642;42.658;23.350;2022-08-25T10:21:08;53812.25;;;-146.31;50.62
2036;BME280;23642;42.658;23.350;2022-08-25T10:23:43;53721.41;;;-146.31;50.85
2036;BME280;23642;42.658;23.350;2022-08-25T10:26:22;53816.38;;;-146.31;49.35
2036;BME280;23642;42.658;23.350;2022-08-25T10:29:04;53872.13;;;-146.31;49.00
2036;BME280;23642;42.658;23.350;2022-08-25T10:31:49;53913.41;;;-146.31;48.80
2036;BME280;23642;42.658;23.350;2022-08-25T10:34:28;53991.84;;;-146.31;49.54
2036;BME280;23642;42.658;23.350;2022-08-25T10:37:03;53985.66;;;-146.31;49.72
2036;BME280;23642;42.658;23.350;2022-08-25T10:39:38;53927.84;;;-146.31;48.11
2036;BME280;23642;42.658;23.350;2022-08-25T10:42:19;53996.00;;;-146.31;46.43
2036;BME280;23642;42.658;23.350;2022-08-25T10:44:54;53892.75;;;-146.31;47.30
2036;BME280;23642;42.658;23.350;2022-08-25T10:47:53;53890.69;;;-146.31;45.06
2036;BME280;23642;42.658;23.350;2022-08-25T10:50:27;53948.50;;;-146.31;44.84
2036;BME280;23642;42.658;23.350;2022-08-25T10:53:14;53762.69;;;-146.31;44.03
2036;BME280;23642;42.658;23.350;2022-08-25T10:55:51;53768.91;;;-146.31;43.19
2036;BME280;23642;42.658;23.350;2022-08-25T10:58:26;53725.53;;;-146.31;43.84
2036;BME280;23642;42.658;23.350;2022-08-25T11:01:03;53589.28;;;-146.31;43.43
2036;BME280;23642;42.658;23.350;2022-08-25T11:03:43;53812.25;;;-146.31;43.20
2036;BME280;23642;42.658;23.350;2022-08-25T11:06:18;53950.56;;;-146.31;44.36
2036;BME280;23642;42.658;23.350;2022-08-25T11:08:50;53886.56;;;-146.31;44.50
2036;BME280;23642;42.658;23.350;2022-08-25T11:11:25;53931.97;;;-146.31;44.08
2036;BME280;23642;42.658;23.350;2022-08-25T11:13:57;53911.34;;;-146.31;43.44
2036;BME280;23642;42.658;23.350;2022-08-25T11:16:35;53863.84;;;-146.31;44.79
2036;BME280;23642;42.658;23.350;2022-08-25T11:19:08;53991.84;;;-146.31;45.01
2036;BME280;23642;42.658;23.350;2022-08-25T11:21:46;54105.41;;;-146.31;46.72
2036;BME280;23642;42.658;23.350;2022-08-25T11:24:40;54080.63;;;-146.31;47.06
2036;BME280;23642;42.658;23.350;2022-08-25T11:27:11;54024.88;;;-146.31;46.71
2036;BME280;23642;42.658;23.350;2022-08-25T11:29:44;53973.28;;;-146.31;45.67
2036;BME280;23642;42.658;23.350;2022-08-25T11:32:19;53977.41;;;-146.31;46.54
2036;BME280;23642;42.658;23.350;2022-08-25T11:34:49;54060.00;;;-146.31;46.29
2036;BME280;23642;42.658;23.350;2022-08-25T11:37:20;54031.09;;;-146.31;46.44
2036;BME280;23642;42.658;23.350;2022-08-25T11:40:13;53996.00;;;-146.31;45.89
2036;BME280;23642;42.658;23.350;2022-08-25T11:42:54;53981.53;;;-146.31;45.23
2036;BME280;23642;42.658;23.350;2022-08-25T11:45:48;53987.72;;;-146.31;45.78
2036;BME280;23642;42.658;23.350;2022-08-25T11:48:29;54004.25;;;-146.31;45.28
2036;BME280;23642;42.658;23.350;2022-08-25T11:51:03;53907.22;;;-146.31;45.21
2036;BME280;23642;42.658;23.350;2022-08-25T11:53:34;54047.59;;;-146.31;45.17
2036;BME280;23642;42.658;23.350;2022-08-25T11:56:04;54132.25;;;-146.31;45.28
2036;BME280;23642;42.658;23.350;2022-08-25T11:58:43;54031.09;;;-146.31;45.33
2036;BME280;23642;42.658;23.350;2022-08-25T12:04:34;53981.53;;;-146.31;44.37
2036;BME280;23642;42.658;23.350;2022-08-25T12:07:25;54086.81;;;-146.31;44.55
2036;BME280;23642;42.658;23.350;2022-08-25T12:10:16;54049.66;;;-146.31;44.21
2036;BME280;23642;42.658;23.350;2022-08-25T12:13:04;53989.78;;;-146.31;43.92
2036;BME280;23642;42.658;23.350;2022-08-25T12:15:58;54121.94;;;-146.31;44.32
2036;BME280;23642;42.658;23.350;2022-08-25T12:18:40;54198.31;;;-146.31;45.22
2036;BME280;23642;42.658;23.350;2022-08-25T12:26:54;54119.88;;;-146.31;43.95
2036;BME280;23642;42.658;23.350;2022-08-25T12:29:40;53991.84;;;-146.31;43.59
2036;BME280;23642;42.658;23.350;2022-08-25T12:32:19;54039.34;;;-146.31;43.20
2036;BME280;23642;42.658;23.350;2022-08-25T12:35:16;54026.94;;;-146.31;43.81
2036;BME280;23642;42.658;23.350;2022-08-25T12:38:08;53973.28;;;-146.31;44.34
2036;BME280;23642;42.658;23.350;2022-08-25T12:40:51;54020.75;;;-146.31;43.29
2036;BME280;23642;42.658;23.350;2022-08-25T12:43:27;54060.00;;;-146.31;42.09
2036;BME280;23642;42.658;23.350;2022-08-25T12:46:32;54138.44;;;-146.31;41.44
2036;BME280;23642;42.658;23.350;2022-08-25T12:49:00;54117.78;;;-146.31;41.41
2036;BME280;23642;42.658;23.350;2022-08-25T12:51:52;54064.13;;;-146.31;41.21
2036;BME280;23642;42.658;23.350;2022-08-25T12:54:40;54152.91;;;-146.31;41.76
2036;BME280;23642;42.658;23.350;2022-08-25T12:57:32;54072.38;;;-146.31;41.04
2036;BME280;23642;42.658;23.350;2022-08-25T13:00:11;54099.22;;;-146.31;41.39
2036;BME280;23642;42.658;23.350;2022-08-25T13:03:06;54221.03;;;-146.31;41.07
2036;BME280;23642;42.658;23.350;2022-08-25T13:05:54;54198.31;;;-146.31;41.27
2036;BME280;23642;42.658;23.350;2022-08-25T13:08:53;54208.63;;;-146.31;41.92
2036;BME280;23642;42.658;23.350;2022-08-25T13:11:31;54270.59;;;-146.31;42.64
2036;BME280;23642;42.658;23.350;2022-08-25T13:14:13;54206.56;;;-146.31;42.60
2036;BME280;23642;42.658;23.350;2022-08-25T13:16:51;54225.16;;;-146.31;41.54